createdAt,value
2023-05-10T00:03:35.459Z,8.32
2023-05-10T00:08:37.127Z,9.93
2023-05-10T00:13:38.636Z,8.70
2023-05-10T00:18:41.219Z,8.23
2023-05-10T00:23:42.761Z,6.82
2023-05-10T00:28:44.309Z,7.00
2023-05-10T00:33:46.224Z,6.90
2023-05-10T00:38:47.692Z,7.25
2023-05-10T00:43:49.337Z,6.93
2023-05-10T00:48:51.082Z,7.03
2023-05-10T00:53:52.898Z,6.82
2023-05-10T00:58:54.423Z,7.13
2023-05-10T01:03:56.298Z,6.72
2023-05-10T01:08:57.831Z,6.50
2023-05-10T01:13:59.743Z,8.07
2023-05-10T01:19:01.651Z,7.60
2023-05-10T01:24:27.080Z,9.15
2023-05-10T01:30:21.821Z,9.00
2023-05-10T01:35:44.224Z,10.20
2023-05-10T01:40:57.648Z,10.60
2023-05-10T01:46:11.840Z,10.10
2023-05-10T01:51:20.694Z,11.07
2023-05-10T01:56:26.684Z,11.10
2023-05-10T02:01:28.774Z,10.85
2023-05-10T02:06:33.490Z,11.15
2023-05-10T02:11:35.622Z,11.30
2023-05-10T02:16:38.720Z,13.88
2023-05-10T02:21:41.374Z,12.98
2023-05-10T02:26:45.206Z,14.18
2023-05-10T02:31:47.604Z,14.32
2023-05-10T02:36:51.653Z,14.43
2023-05-10T02:41:54.563Z,15.27
2023-05-10T02:46:57.046Z,13.85
2023-05-10T02:52:02.518Z,13.70
2023-05-10T02:57:06.508Z,12.93
2023-05-10T03:02:08.488Z,11.38
2023-05-10T03:07:10.591Z,10.15
2023-05-10T03:12:19.188Z,10.48
2023-05-10T03:17:30.062Z,10.30
2023-05-10T03:22:54.339Z,10.82
2023-05-10T03:27:57.190Z,10.95
2023-05-10T03:32:58.793Z,11.23
2023-05-10T03:38:00.388Z,13.10
2023-05-10T03:43:01.925Z,14.98
2023-05-10T03:48:04.333Z,16.67
2023-05-10T03:53:06.143Z,13.57
2023-05-10T03:58:07.695Z,12.65
2023-05-10T04:03:09.432Z,12.30
2023-05-10T04:08:10.997Z,13.05
2023-05-10T04:13:12.511Z,12.60
2023-05-10T04:18:14.004Z,11.25
2023-05-10T04:23:17.498Z,12.85
2023-05-10T04:28:19.042Z,12.25
2023-05-10T04:33:20.579Z,13.05
2023-05-10T04:38:22.117Z,11.13
2023-05-10T04:43:23.624Z,9.88
2023-05-10T04:48:25.070Z,9.82
2023-05-10T04:53:26.731Z,10.27
2023-05-10T04:58:28.350Z,10.02
2023-05-10T05:03:29.918Z,11.38
2023-05-10T05:08:31.536Z,10.73
2023-05-10T05:13:33.175Z,11.27
2023-05-10T05:18:34.735Z,11.05
2023-05-10T05:23:36.263Z,11.50
2023-05-10T05:28:38.547Z,11.63
2023-05-10T05:33:40.017Z,12.23
2023-05-10T05:38:41.512Z,11.55
2023-05-10T05:43:43.042Z,12.57
2023-05-10T05:48:44.505Z,12.20
2023-05-10T05:53:46.268Z,12.70
2023-05-10T05:58:47.819Z,12.55
2023-05-10T06:03:50.950Z,13.00
2023-05-10T06:08:53.416Z,13.95
2023-05-10T06:13:54.956Z,13.95
2023-05-10T06:18:56.550Z,14.20
2023-05-10T06:23:58.297Z,14.27
2023-05-10T06:28:59.869Z,14.32
2023-05-10T06:34:01.586Z,15.05
2023-05-10T06:39:03.149Z,14.43
2023-05-10T06:44:04.978Z,14.20
2023-05-10T06:49:06.498Z,16.15
2023-05-10T06:54:08.037Z,15.40
2023-05-10T06:59:09.676Z,16.40
2023-05-10T07:04:11.424Z,16.85
2023-05-10T07:09:12.968Z,16.70
2023-05-10T07:14:14.469Z,19.02
2023-05-10T07:19:15.942Z,18.30
2023-05-10T07:24:17.495Z,16.55
2023-05-10T07:29:18.945Z,15.98
2023-05-10T07:34:20.438Z,15.70
2023-05-10T07:39:27.459Z,15.27
2023-05-10T07:44:29.696Z,14.45
2023-05-10T07:49:33.598Z,13.52
2023-05-10T07:54:35.461Z,12.93
2023-05-10T07:59:37.464Z,11.27
2023-05-10T08:04:39.038Z,10.93
2023-05-10T08:09:40.709Z,11.63
2023-05-10T08:14:42.297Z,10.88
2023-05-10T08:19:43.826Z,10.77
2023-05-10T08:24:45.294Z,10.27
2023-05-10T08:29:50.472Z,10.63
2023-05-10T08:34:52.340Z,10.43
2023-05-10T08:39:53.847Z,11.02
2023-05-10T08:44:56.318Z,11.90
2023-05-10T08:50:00.193Z,10.95
2023-05-10T08:55:01.963Z,11.23
2023-05-10T09:00:03.892Z,11.40
2023-05-10T09:05:06.440Z,10.57
2023-05-10T09:10:09.117Z,10.18
2023-05-10T09:15:11.533Z,10.27
2023-05-10T09:20:13.218Z,9.88
2023-05-10T09:25:17.017Z,10.07
2023-05-10T09:30:31.811Z,10.70
2023-05-10T09:35:34.408Z,9.30
2023-05-10T09:40:36.124Z,9.48
2023-05-10T09:45:39.092Z,9.95
2023-05-10T09:50:41.340Z,9.82
2023-05-10T09:55:47.539Z,10.60
2023-05-10T10:00:52.315Z,10.55
2023-05-10T10:05:54.309Z,11.85
2023-05-10T10:10:55.802Z,11.82
2023-05-10T10:15:57.378Z,12.93
2023-05-10T10:20:59.507Z,12.95
2023-05-10T10:26:01.515Z,12.27
2023-05-10T10:31:35.897Z,11.05
2023-05-10T10:36:46.704Z,11.00
2023-05-10T10:41:56.691Z,11.35
2023-05-10T10:47:19.632Z,9.27
2023-05-10T10:52:34.490Z,8.32
2023-05-10T10:57:42.101Z,8.88
2023-05-10T11:02:43.591Z,10.43
2023-05-10T11:07:59.677Z,10.35
2023-05-10T11:13:11.212Z,9.80
2023-05-10T11:18:19.993Z,8.93
2023-05-10T11:23:23.168Z,8.60
2023-05-10T11:28:24.984Z,8.85
2023-05-10T11:33:26.444Z,8.30
2023-05-10T11:38:27.916Z,7.75
2023-05-10T11:43:31.551Z,8.10
2023-05-10T11:48:33.328Z,8.63
2023-05-10T11:53:34.987Z,8.48
2023-05-10T11:58:38.088Z,9.75
2023-05-10T12:03:40.905Z,7.72
2023-05-10T12:08:47.026Z,7.60
2023-05-10T12:13:48.942Z,9.38
2023-05-10T12:18:57.300Z,8.05
2023-05-10T12:24:06.322Z,8.07
2023-05-10T12:29:15.105Z,7.80
2023-05-10T12:34:26.957Z,5.90
2023-05-10T12:39:39.987Z,5.80
2023-05-10T12:44:41.517Z,7.03
2023-05-10T12:49:43.096Z,6.57
2023-05-10T12:54:44.549Z,6.22
2023-05-10T12:59:46.079Z,5.65
2023-05-10T13:04:49.615Z,7.10
2023-05-10T13:09:52.424Z,6.65
2023-05-10T13:14:55.276Z,5.20
2023-05-10T13:19:56.773Z,5.57
2023-05-10T13:24:58.267Z,4.80
2023-05-10T13:30:00.370Z,4.55
2023-05-10T13:35:02.142Z,4.93
2023-05-10T13:40:05.429Z,7.82
2023-05-10T13:45:07.309Z,7.47
2023-05-10T13:50:09.126Z,6.88
2023-05-10T13:55:13.279Z,7.10
2023-05-10T14:00:15.110Z,6.45
2023-05-10T14:05:17.126Z,6.32
2023-05-10T14:10:20.307Z,5.10
2023-05-10T14:15:22.016Z,4.38
2023-05-10T14:20:23.516Z,4.10
2023-05-10T14:25:25.425Z,5.13
2023-05-10T14:30:26.994Z,39.17
2023-05-10T14:35:29.014Z,6.03
2023-05-10T14:40:31.088Z,5.30
2023-05-10T14:45:32.663Z,4.53
2023-05-10T14:50:37.077Z,4.53
2023-05-10T14:55:39.914Z,4.63
2023-05-10T15:00:41.702Z,5.00
2023-05-10T15:05:43.711Z,4.78
2023-05-10T15:10:45.194Z,4.30
2023-05-10T15:15:46.760Z,4.47
2023-05-10T15:20:48.265Z,3.83
2023-05-10T15:25:51.244Z,5.50
2023-05-10T15:30:52.745Z,3.65
2023-05-10T15:35:54.660Z,4.25
2023-05-10T15:40:58.668Z,5.05
2023-05-10T15:46:00.395Z,6.07
2023-05-10T15:51:01.867Z,4.57
2023-05-10T15:56:04.107Z,5.15
2023-05-10T16:01:08.516Z,3.97
2023-05-10T16:06:10.009Z,4.13
2023-05-10T16:11:11.608Z,3.40
2023-05-10T16:16:13.243Z,3.45
2023-05-10T16:21:14.835Z,3.50
2023-05-10T16:26:16.919Z,3.70
2023-05-10T16:31:19.900Z,3.63
2023-05-10T16:36:21.558Z,6.13
2023-05-10T16:41:23.098Z,7.57
2023-05-10T16:46:24.745Z,7.90
2023-05-10T16:51:27.037Z,7.90
2023-05-10T16:56:28.517Z,7.72
2023-05-10T17:01:30.120Z,6.85
2023-05-10T17:06:31.661Z,8.35
2023-05-10T17:11:33.260Z,8.35
2023-05-10T17:16:35.819Z,9.45
2023-05-10T17:21:37.370Z,10.10
2023-05-10T17:26:38.859Z,9.30
2023-05-10T17:31:40.728Z,9.02
2023-05-10T17:36:42.656Z,9.40
2023-05-10T17:41:44.125Z,9.23
2023-05-10T17:46:45.643Z,10.20
2023-05-10T17:51:50.635Z,10.32
2023-05-10T17:56:52.740Z,10.15
2023-05-10T18:01:54.275Z,9.93
2023-05-10T18:07:01.302Z,10.63
2023-05-10T18:12:03.397Z,10.48
2023-05-10T18:17:07.120Z,10.82
2023-05-10T18:22:11.272Z,9.95
2023-05-10T18:27:13.018Z,9.90
2023-05-10T18:32:14.605Z,11.75
2023-05-10T18:37:16.462Z,10.90
2023-05-10T18:42:18.148Z,9.68
2023-05-10T18:47:19.803Z,8.75
2023-05-10T18:52:21.469Z,11.05
2023-05-10T18:57:23.977Z,7.80
2023-05-10T19:02:26.715Z,7.30
2023-05-10T19:07:29.492Z,7.70
2023-05-10T19:12:31.069Z,7.78
2023-05-10T19:17:32.646Z,6.53
2023-05-10T19:22:47.215Z,8.18
2023-05-10T19:27:58.770Z,7.25
2023-05-10T19:33:05.541Z,8.13
2023-05-10T19:38:07.346Z,7.22
2023-05-10T19:43:09.293Z,8.13
2023-05-10T19:48:10.971Z,7.63
2023-05-10T19:53:12.623Z,7.28
2023-05-10T19:58:14.090Z,7.13
2023-05-10T20:03:15.680Z,8.07
2023-05-10T20:08:17.247Z,8.65
2023-05-10T20:13:18.932Z,8.07
2023-05-10T20:18:20.428Z,9.50
2023-05-10T20:23:22.251Z,11.02
2023-05-10T20:28:25.372Z,10.45
2023-05-10T20:33:26.953Z,10.50
2023-05-10T20:38:30.313Z,9.73
2023-05-10T20:43:32.138Z,10.18
2023-05-10T20:48:34.126Z,13.57
2023-05-10T20:53:35.705Z,9.07
2023-05-10T20:58:37.237Z,8.90
2023-05-10T21:03:38.747Z,7.75
2023-05-10T21:08:40.373Z,8.07
2023-05-10T21:13:41.904Z,8.38
2023-05-10T21:18:43.459Z,8.45
2023-05-10T21:23:47.975Z,10.20
2023-05-10T21:28:49.492Z,12.77
2023-05-10T21:33:51.296Z,9.07
2023-05-10T21:38:52.837Z,7.93
2023-05-10T21:43:54.380Z,7.53
2023-05-10T21:48:55.861Z,7.35
2023-05-10T21:53:57.361Z,7.60
2023-05-10T21:58:58.908Z,8.48
2023-05-10T22:04:00.843Z,7.97
2023-05-10T22:09:02.377Z,7.75
2023-05-10T22:14:03.957Z,7.65
2023-05-10T22:19:05.604Z,8.15
2023-05-10T22:24:07.320Z,7.95
2023-05-10T22:29:08.803Z,8.23
2023-05-10T22:34:10.427Z,8.00
2023-05-10T22:39:12.184Z,8.40
2023-05-10T22:44:13.726Z,8.70
2023-05-10T22:49:15.210Z,8.68
2023-05-10T22:54:16.700Z,8.50
2023-05-10T22:59:18.169Z,8.27
2023-05-10T23:04:19.728Z,7.90
2023-05-10T23:09:21.337Z,8.30
2023-05-10T23:14:22.808Z,7.82
2023-05-10T23:19:24.656Z,7.97
2023-05-10T23:24:26.298Z,7.32
2023-05-10T23:29:27.912Z,8.00
2023-05-10T23:34:29.713Z,7.03
2023-05-10T23:39:31.310Z,7.82
2023-05-10T23:44:33.046Z,7.28
2023-05-10T23:49:34.602Z,7.22
2023-05-10T23:54:36.192Z,8.57
2023-05-10T23:59:37.878Z,7.50
